Portada
METAR-TAF:

METAR-TAF

Aeropuertos :

Jinotega, Nicaragua

latitud: 13-05N, longitud: 085-59W, altitud: 985 m

Observación

El informe se hizo hace 10 horas y 22 minutos, a las 23:00 UTC
Viento calma
Temperatura 25°C
Humedad 89%
Presión 1009 hPa
Visibilidad: 5000 m
Cielo nuboso a una altura de 1000 ft
llovizna ligera,

METAR: MNJG 172300Z 00000KT 5000 -DZ BKN010 25/23 Q1009

Hora: 03:22 (09:22 UTC)


TAF: falta

Observaciones y pronósticos meteorológicos de más de 4000 aeropuertos (mensajes METAR y TAF).

Los puntos amarillos y rojos representan las estaciones disponibles.

Ponga el ratón en el punto deseado para ver el nombre de la estación.

Haga clic para ver las observaciones y los pronósticos meteorológicos.

Para cambiar el mapa : haga clic en los botones verdes con una cruz de color negro para hacer un zoom, en el botón verde con un guión para alejar o en las flechas verdes para mapas adyacentes.


METAR-TAF: